sensor_id;sensor_type;location;lat;lon;timestamp;pressure;altitude;pressure_sealevel;temperature;humidity
73085;BME280;62974;49.460;10.892;2023-04-04T00:02:49;98763.44;;;1.80;62.57
73085;BME280;62974;49.460;10.892;2023-04-04T00:06:04;98761.03;;;1.77;61.86
73085;BME280;62974;49.460;10.892;2023-04-04T00:09:04;98768.63;;;1.82;62.12
73085;BME280;62974;49.460;10.892;2023-04-04T00:12:00;98765.72;;;1.85;61.74
73085;BME280;62974;49.460;10.892;2023-04-04T00:14:35;98762.34;;;1.94;63.13
73085;BME280;62974;49.460;10.892;2023-04-04T00:17:35;98753.00;;;1.79;62.50
73085;BME280;62974;49.460;10.892;2023-04-04T00:20:23;98756.81;;;1.86;62.11
73085;BME280;62974;49.460;10.892;2023-04-04T00:23:11;98753.44;;;1.84;62.72
73085;BME280;62974;49.460;10.892;2023-04-04T00:32:35;98750.47;;;1.77;63.03
73085;BME280;62974;49.460;10.892;2023-04-04T00:35:27;98753.09;;;1.88;62.91
73085;BME280;62974;49.460;10.892;2023-04-04T00:38:05;98748.28;;;1.82;63.17
73085;BME280;62974;49.460;10.892;2023-04-04T00:40:59;98745.66;;;1.82;62.70
73085;BME280;62974;49.460;10.892;2023-04-04T00:44:18;98743.59;;;1.86;63.46
73085;BME280;62974;49.460;10.892;2023-04-04T00:47:05;98746.47;;;1.94;63.61
73085;BME280;62974;49.460;10.892;2023-04-04T00:49:53;98742.25;;;1.92;62.81
73085;BME280;62974;49.460;10.892;2023-04-04T00:52:38;98741.66;;;1.88;63.18
73085;BME280;62974;49.460;10.892;2023-04-04T00:55:23;98732.50;;;1.92;62.88
73085;BME280;62974;49.460;10.892;2023-04-04T01:01:22;98729.63;;;1.84;63.29
73085;BME280;62974;49.460;10.892;2023-04-04T01:04:29;98724.69;;;1.91;62.59
73085;BME280;62974;49.460;10.892;2023-04-04T01:07:22;98726.72;;;1.98;62.89
73085;BME280;62974;49.460;10.892;2023-04-04T01:10:12;98726.75;;;1.87;63.28
73085;BME280;62974;49.460;10.892;2023-04-04T01:13:42;98729.13;;;1.90;63.86
73085;BME280;62974;49.460;10.892;2023-04-04T01:17:30;98720.56;;;1.98;64.00
73085;BME280;62974;49.460;10.892;2023-04-04T01:20:14;98724.28;;;2.06;63.78
73085;BME280;62974;49.460;10.892;2023-04-04T01:23:07;98718.78;;;1.98;64.21
73085;BME280;62974;49.460;10.892;2023-04-04T01:26:16;98725.91;;;1.86;64.98
73085;BME280;62974;49.460;10.892;2023-04-04T01:29:14;98722.91;;;1.13;65.24
73085;BME280;62974;49.460;10.892;2023-04-04T01:32:06;98717.97;;;1.86;63.28
73085;BME280;62974;49.460;10.892;2023-04-04T01:34:54;98717.41;;;2.04;64.16
73085;BME280;62974;49.460;10.892;2023-04-04T01:37:57;98710.53;;;2.12;63.80
73085;BME280;62974;49.460;10.892;2023-04-04T01:43:34;98728.81;;;1.50;65.44
73085;BME280;62974;49.460;10.892;2023-04-04T01:46:26;98724.00;;;1.44;63.69
73085;BME280;62974;49.460;10.892;2023-04-04T01:49:04;98717.13;;;1.75;64.33
73085;BME280;62974;49.460;10.892;2023-04-04T01:51:45;98716.19;;;2.08;63.94
73085;BME280;62974;49.460;10.892;2023-04-04T01:54:21;98720.25;;;1.02;63.89
73085;BME280;62974;49.460;10.892;2023-04-04T01:57:00;98705.72;;;1.52;63.73
73085;BME280;62974;49.460;10.892;2023-04-04T01:59:48;98719.50;;;0.89;62.77
73085;BME280;62974;49.460;10.892;2023-04-04T02:02:44;98711.91;;;0.73;62.21
73085;BME280;62974;49.460;10.892;2023-04-04T02:05:45;98698.25;;;0.44;59.30
73085;BME280;62974;49.460;10.892;2023-04-04T02:08:37;98711.53;;;0.56;61.17
73085;BME280;62974;49.460;10.892;2023-04-04T02:11:18;98708.34;;;0.97;60.04
73085;BME280;62974;49.460;10.892;2023-04-04T02:14:30;98705.19;;;0.69;57.81
73085;BME280;62974;49.460;10.892;2023-04-04T02:17:20;98706.91;;;1.48;62.06
73085;BME280;62974;49.460;10.892;2023-04-04T02:20:15;98693.66;;;0.81;59.15
73085;BME280;62974;49.460;10.892;2023-04-04T02:23:13;98691.88;;;1.04;58.46
73085;BME280;62974;49.460;10.892;2023-04-04T02:25:51;98692.97;;;0.44;58.51
73085;BME280;62974;49.460;10.892;2023-04-04T02:28:42;98699.00;;;1.26;60.31
73085;BME280;62974;49.460;10.892;2023-04-04T02:34:39;98686.72;;;1.58;59.81
73085;BME280;62974;49.460;10.892;2023-04-04T02:37:36;98681.53;;;1.57;59.54
73085;BME280;62974;49.460;10.892;2023-04-04T02:40:29;98680.19;;;1.73;61.28
73085;BME280;62974;49.460;10.892;2023-04-04T02:43:22;98672.34;;;1.72;59.57
73085;BME280;62974;49.460;10.892;2023-04-04T02:46:16;98675.16;;;1.59;59.72
73085;BME280;62974;49.460;10.892;2023-04-04T02:49:14;98674.91;;;1.62;61.00
73085;BME280;62974;49.460;10.892;2023-04-04T02:52:22;98677.41;;;1.64;59.58
73085;BME280;62974;49.460;10.892;2023-04-04T02:55:10;98673.59;;;1.57;60.24
73085;BME280;62974;49.460;10.892;2023-04-04T02:57:57;98678.88;;;1.57;60.42
73085;BME280;62974;49.460;10.892;2023-04-04T03:01:26;98678.53;;;1.50;59.75
73085;BME280;62974;49.460;10.892;2023-04-04T03:04:23;98680.09;;;1.41;59.49
73085;BME280;62974;49.460;10.892;2023-04-04T03:13:57;98680.47;;;1.48;59.76
73085;BME280;62974;49.460;10.892;2023-04-04T03:16:58;98678.78;;;1.47;61.03
73085;BME280;62974;49.460;10.892;2023-04-04T03:19:51;98679.84;;;1.45;60.03
73085;BME280;62974;49.460;10.892;2023-04-04T03:23:06;98674.94;;;1.40;61.69
73085;BME280;62974;49.460;10.892;2023-04-04T03:26:17;98676.88;;;1.27;61.19
73085;BME280;62974;49.460;10.892;2023-04-04T03:29:13;98676.97;;;1.36;61.59
73085;BME280;62974;49.460;10.892;2023-04-04T03:31:58;98679.50;;;0.93;62.60
73085;BME280;62974;49.460;10.892;2023-04-04T03:34:50;98669.91;;;1.26;61.89
73085;BME280;62974;49.460;10.892;2023-04-04T03:37:34;98678.19;;;1.21;61.98
73085;BME280;62974;49.460;10.892;2023-04-04T03:40:34;98672.03;;;1.32;62.08
73085;BME280;62974;49.460;10.892;2023-04-04T03:43:35;98677.81;;;0.92;62.71
73085;BME280;62974;49.460;10.892;2023-04-04T03:46:20;98682.25;;;0.92;62.73
73085;BME280;62974;49.460;10.892;2023-04-04T03:49:21;98672.66;;;1.13;62.52
73085;BME280;62974;49.460;10.892;2023-04-04T03:52:14;98671.72;;;1.14;61.68
73085;BME280;62974;49.460;10.892;2023-04-04T03:55:49;98671.31;;;0.85;61.97
73085;BME280;62974;49.460;10.892;2023-04-04T03:58:58;98675.91;;;1.06;61.98
73085;BME280;62974;49.460;10.892;2023-04-04T04:02:19;98680.00;;;1.10;61.91
73085;BME280;62974;49.460;10.892;2023-04-04T04:04:56;98675.91;;;1.06;62.35
73085;BME280;62974;49.460;10.892;2023-04-04T04:07:52;98676.41;;;1.11;61.90
73085;BME280;62974;49.460;10.892;2023-04-04T04:10:35;98678.69;;;1.15;62.67
73085;BME280;62974;49.460;10.892;2023-04-04T04:13:36;98672.53;;;1.04;61.68
73085;BME280;62974;49.460;10.892;2023-04-04T04:16:46;98669.41;;;0.99;61.80
73085;BME280;62974;49.460;10.892;2023-04-04T04:19:26;98670.72;;;1.04;61.91
73085;BME280;62974;49.460;10.892;2023-04-04T04:22:24;98670.28;;;0.99;61.92
73085;BME280;62974;49.460;10.892;2023-04-04T04:25:16;98665.78;;;1.00;62.27
73085;BME280;62974;49.460;10.892;2023-04-04T04:28:02;98667.72;;;0.98;62.35
73085;BME280;62974;49.460;10.892;2023-04-04T04:30:44;98672.66;;;1.02;62.44
73085;BME280;62974;49.460;10.892;2023-04-04T04:33:43;98668.56;;;0.87;62.34
73085;BME280;62974;49.460;10.892;2023-04-04T04:36:20;98667.22;;;0.81;62.29
73085;BME280;62974;49.460;10.892;2023-04-04T04:39:08;98666.63;;;0.89;62.77
73085;BME280;62974;49.460;10.892;2023-04-04T04:41:49;98665.78;;;0.88;62.78
73085;BME280;62974;49.460;10.892;2023-04-04T04:44:33;98676.09;;;0.69;63.68
73085;BME280;62974;49.460;10.892;2023-04-04T04:47:12;98681.28;;;0.82;63.66
73085;BME280;62974;49.460;10.892;2023-04-04T04:50:02;98673.00;;;0.86;63.81
73085;BME280;62974;49.460;10.892;2023-04-04T04:52:39;98671.31;;;0.85;63.79
73085;BME280;62974;49.460;10.892;2023-04-04T04:55:17;98674.06;;;0.84;63.76
73085;BME280;62974;49.460;10.892;2023-04-04T04:57:59;98673.53;;;0.45;65.35
73085;BME280;62974;49.460;10.892;2023-04-04T05:00:36;98668.88;;;0.60;63.68
73085;BME280;62974;49.460;10.892;2023-04-04T05:03:32;98677.47;;;0.86;63.54
73085;BME280;62974;49.460;10.892;2023-04-04T05:06:28;98675.53;;;0.88;63.83
73085;BME280;62974;49.460;10.892;2023-04-04T05:09:17;98671.78;;;0.68;63.67
73085;BME280;62974;49.460;10.892;2023-04-04T05:12:10;98668.31;;;0.79;63.94
73085;BME280;62974;49.460;10.892;2023-04-04T05:14:53;98678.72;;;0.58;63.96
73085;BME280;62974;49.460;10.892;2023-04-04T05:17:37;98686.50;;;0.48;65.58
73085;BME280;62974;49.460;10.892;2023-04-04T05:20:18;98681.28;;;0.60;64.87
73085;BME280;62974;49.460;10.892;2023-04-04T05:22:57;98673.81;;;0.76;64.99
73085;BME280;62974;49.460;10.892;2023-04-04T05:25:33;98673.88;;;1.09;63.92
73085;BME280;62974;49.460;10.892;2023-04-04T05:28:10;98673.50;;;0.91;64.01
73085;BME280;62974;49.460;10.892;2023-04-04T05:30:58;98680.34;;;0.83;64.21
73085;BME280;62974;49.460;10.892;2023-04-04T05:33:55;98677.47;;;0.86;64.94
73085;BME280;62974;49.460;10.892;2023-04-04T05:36:36;98685.50;;;0.84;65.21
73085;BME280;62974;49.460;10.892;2023-04-04T05:39:28;98679.22;;;0.63;64.98
73085;BME280;62974;49.460;10.892;2023-04-04T05:42:21;98686.84;;;0.90;65.29
73085;BME280;62974;49.460;10.892;2023-04-04T05:44:48;98687.81;;;0.43;64.92
73085;BME280;62974;49.460;10.892;2023-04-04T05:47:17;98692.84;;;0.35;67.34
73085;BME280;62974;49.460;10.892;2023-04-04T05:49:47;98684.03;;;0.23;65.87
73085;BME280;62974;49.460;10.892;2023-04-04T05:52:14;98691.19;;;0.56;66.06
73085;BME280;62974;49.460;10.892;2023-04-04T05:54:43;98688.13;;;0.84;65.41
73085;BME280;62974;49.460;10.892;2023-04-04T05:57:13;98690.88;;;0.26;66.08
73085;BME280;62974;49.460;10.892;2023-04-04T05:59:41;98696.06;;;0.04;67.27
73085;BME280;62974;49.460;10.892;2023-04-04T06:02:08;98694.59;;;0.69;65.77
73085;BME280;62974;49.460;10.892;2023-04-04T06:04:36;98698.88;;;-0.47;67.87
73085;BME280;62974;49.460;10.892;2023-04-04T06:07:06;98697.31;;;0.45;66.88
73085;BME280;62974;49.460;10.892;2023-04-04T06:09:33;98689.84;;;-0.32;65.63
73085;BME280;62974;49.460;10.892;2023-04-04T06:12:06;98693.50;;;0.26;66.45
73085;BME280;62974;49.460;10.892;2023-04-04T06:14:48;98697.25;;;-0.24;65.60
73085;BME280;62974;49.460;10.892;2023-04-04T06:17:16;98693.63;;;-0.23;66.63
73085;BME280;62974;49.460;10.892;2023-04-04T06:19:54;98688.81;;;-0.06;66.46
73085;BME280;62974;49.460;10.892;2023-04-04T06:22:40;98693.00;;;-0.27;65.70
73085;BME280;62974;49.460;10.892;2023-04-04T06:25:21;98687.31;;;0.03;66.56
73085;BME280;62974;49.460;10.892;2023-04-04T06:27:49;98689.84;;;-0.32;65.98
73085;BME280;62974;49.460;10.892;2023-04-04T06:30:19;98692.53;;;0.16;65.94
73085;BME280;62974;49.460;10.892;2023-04-04T06:32:47;98693.28;;;-0.42;65.84
73085;BME280;62974;49.460;10.892;2023-04-04T06:35:36;98696.25;;;-0.60;66.31
73085;BME280;62974;49.460;10.892;2023-04-04T06:38:20;98698.44;;;-0.41;66.64
73085;BME280;62974;49.460;10.892;2023-04-04T06:40:50;98702.28;;;-0.58;65.76
73085;BME280;62974;49.460;10.892;2023-04-04T06:46:50;98704.13;;;-0.11;65.04
73085;BME280;62974;49.460;10.892;2023-04-04T06:49:38;98699.19;;;0.09;65.49
73085;BME280;62974;49.460;10.892;2023-04-04T06:52:27;98701.53;;;-0.23;65.57
73085;BME280;62974;49.460;10.892;2023-04-04T06:55:33;98688.56;;;0.21;64.27
73085;BME280;62974;49.460;10.892;2023-04-04T06:58:05;98691.06;;;0.12;63.83
73085;BME280;62974;49.460;10.892;2023-04-04T07:00:36;98692.25;;;0.08;62.95
73085;BME280;62974;49.460;10.892;2023-04-04T07:03:09;98694.78;;;0.20;63.68
73085;BME280;62974;49.460;10.892;2023-04-04T07:05:48;98692.22;;;0.31;63.22
73085;BME280;62974;49.460;10.892;2023-04-04T07:08:15;98686.41;;;0.15;61.64
73085;BME280;62974;49.460;10.892;2023-04-04T07:10:43;98689.88;;;0.51;62.72
73085;BME280;62974;49.460;10.892;2023-04-04T07:13:11;98694.81;;;0.55;61.66
73085;BME280;62974;49.460;10.892;2023-04-04T07:15:45;98684.97;;;0.68;61.46
73085;BME280;62974;49.460;10.892;2023-04-04T07:18:19;98695.34;;;0.71;61.21
73085;BME280;62974;49.460;10.892;2023-04-04T07:20:52;98692.13;;;0.90;61.76
73085;BME280;62974;49.460;10.892;2023-04-04T07:23:19;98701.25;;;1.08;61.88
73085;BME280;62974;49.460;10.892;2023-04-04T07:25:47;98695.47;;;0.92;60.30
73085;BME280;62974;49.460;10.892;2023-04-04T07:28:14;98697.41;;;0.79;59.84
73085;BME280;62974;49.460;10.892;2023-04-04T07:30:43;98696.41;;;0.80;59.95
73085;BME280;62974;49.460;10.892;2023-04-04T07:33:11;98696.81;;;0.86;59.37
73085;BME280;62974;49.460;10.892;2023-04-04T07:35:38;98696.31;;;0.92;58.90
73085;BME280;62974;49.460;10.892;2023-04-04T07:38:06;98691.63;;;0.96;58.65
73085;BME280;62974;49.460;10.892;2023-04-04T07:40:34;98692.72;;;1.16;59.62
73085;BME280;62974;49.460;10.892;2023-04-04T07:43:02;98692.28;;;1.11;58.84
73085;BME280;62974;49.460;10.892;2023-04-04T07:45:40;98685.75;;;1.04;57.77
73085;BME280;62974;49.460;10.892;2023-04-04T07:48:16;98686.94;;;1.44;57.96
73085;BME280;62974;49.460;10.892;2023-04-04T07:50:49;98688.00;;;1.64;58.06
73085;BME280;62974;49.460;10.892;2023-04-04T07:53:20;98686.81;;;1.57;59.24
73085;BME280;62974;49.460;10.892;2023-04-04T07:55:49;98685.75;;;1.48;57.62
73085;BME280;62974;49.460;10.892;2023-04-04T07:58:21;98687.72;;;1.35;56.69
73085;BME280;62974;49.460;10.892;2023-04-04T08:00:53;98691.16;;;1.35;57.66
73085;BME280;62974;49.460;10.892;2023-04-04T08:03:28;98683.69;;;1.52;57.40
73085;BME280;62974;49.460;10.892;2023-04-04T08:05:56;98689.25;;;1.49;57.84
73085;BME280;62974;49.460;10.892;2023-04-04T08:08:52;98690.81;;;1.51;58.29
73085;BME280;62974;49.460;10.892;2023-04-04T08:11:34;98679.81;;;1.78;55.39
73085;BME280;62974;49.460;10.892;2023-04-04T08:14:24;98685.28;;;1.54;55.96
73085;BME280;62974;49.460;10.892;2023-04-04T08:16:55;98683.94;;;1.60;56.14
73085;BME280;62974;49.460;10.892;2023-04-04T08:19:24;98696.09;;;1.62;56.46
73085;BME280;62974;49.460;10.892;2023-04-04T08:21:52;98689.50;;;1.46;57.16
73085;BME280;62974;49.460;10.892;2023-04-04T08:24:21;98689.97;;;1.62;57.10
73085;BME280;62974;49.460;10.892;2023-04-04T08:26:51;98690.34;;;1.46;55.74
73085;BME280;62974;49.460;10.892;2023-04-04T08:29:31;98682.47;;;1.78;56.34
73085;BME280;62974;49.460;10.892;2023-04-04T08:32:06;98665.63;;;1.68;55.26
73085;BME280;62974;49.460;10.892;2023-04-04T08:34:42;98668.13;;;1.80;52.75
73085;BME280;62974;49.460;10.892;2023-04-04T08:37:15;98669.78;;;1.93;54.41
73085;BME280;62974;49.460;10.892;2023-04-04T08:39:43;98670.22;;;2.09;53.53
73085;BME280;62974;49.460;10.892;2023-04-04T08:42:32;98661.84;;;2.24;53.35
73085;BME280;62974;49.460;10.892;2023-04-04T08:45:02;98673.31;;;2.46;53.65
73085;BME280;62974;49.460;10.892;2023-04-04T08:47:36;98659.22;;;2.66;52.41
73085;BME280;62974;49.460;10.892;2023-04-04T08:50:08;98666.78;;;2.50;50.48
73085;BME280;62974;49.460;10.892;2023-04-04T08:52:40;98677.09;;;2.32;51.78
73085;BME280;62974;49.460;10.892;2023-04-04T08:55:15;98675.09;;;2.24;50.37
73085;BME280;62974;49.460;10.892;2023-04-04T08:58:09;98664.25;;;2.48;51.05
73085;BME280;62974;49.460;10.892;2023-04-04T09:00:41;98675.38;;;2.42;50.99
73085;BME280;62974;49.460;10.892;2023-04-04T09:03:23;98679.56;;;2.45;53.25
73085;BME280;62974;49.460;10.892;2023-04-04T09:05:57;98675.66;;;2.28;53.38
73085;BME280;62974;49.460;10.892;2023-04-04T09:08:36;98677.69;;;2.35;52.28
73085;BME280;62974;49.460;10.892;2023-04-04T09:11:10;98679.78;;;2.21;52.39
73085;BME280;62974;49.460;10.892;2023-04-04T09:13:43;98673.00;;;2.28;51.66
73085;BME280;62974;49.460;10.892;2023-04-04T09:34:23;98675.75;;;2.38;51.47
73085;BME280;62974;49.460;10.892;2023-04-04T09:36:52;98674.91;;;2.37;51.97
73085;BME280;62974;49.460;10.892;2023-04-04T09:39:22;98681.19;;;2.57;52.11
73085;BME280;62974;49.460;10.892;2023-04-04T09:41:50;98682.16;;;2.56;52.51
73085;BME280;62974;49.460;10.892;2023-04-04T09:44:23;98676.47;;;2.81;51.99
73085;BME280;62974;49.460;10.892;2023-04-04T09:46:53;98677.31;;;2.81;52.18
73085;BME280;62974;49.460;10.892;2023-04-04T09:50:01;98687.59;;;2.75;52.21
73085;BME280;62974;49.460;10.892;2023-04-04T09:55:50;98679.03;;;2.92;52.51
73085;BME280;62974;49.460;10.892;2023-04-04T09:58:24;98671.31;;;2.59;51.45
73085;BME280;62974;49.460;10.892;2023-04-04T10:00:54;98675.91;;;2.77;51.83
73085;BME280;62974;49.460;10.892;2023-04-04T10:03:24;98673.25;;;3.08;52.28
73085;BME280;62974;49.460;10.892;2023-04-04T10:06:16;98682.16;;;2.97;53.36
73085;BME280;62974;49.460;10.892;2023-04-04T10:11:38;98666.81;;;3.01;51.39
73085;BME280;62974;49.460;10.892;2023-04-04T10:14:08;98670.34;;;3.11;52.75
73085;BME280;62974;49.460;10.892;2023-04-04T10:16:35;98672.03;;;3.12;51.88
73085;BME280;62974;49.460;10.892;2023-04-04T10:19:04;98661.88;;;2.66;51.05
73085;BME280;62974;49.460;10.892;2023-04-04T10:21:34;98668.25;;;2.84;50.94
73085;BME280;62974;49.460;10.892;2023-04-04T10:24:02;98660.56;;;2.81;51.04
73085;BME280;62974;49.460;10.892;2023-04-04T10:26:35;98652.69;;;3.00;51.12
73085;BME280;62974;49.460;10.892;2023-04-04T10:29:06;98649.97;;;3.11;51.45
73085;BME280;62974;49.460;10.892;2023-04-04T10:31:37;98651.88;;;2.79;50.09
73085;BME280;62974;49.460;10.892;2023-04-04T10:45:14;98639.91;;;3.55;47.82
73085;BME280;62974;49.460;10.892;2023-04-04T10:47:47;98643.63;;;3.92;49.39
73085;BME280;62974;49.460;10.892;2023-04-04T10:50:19;98643.72;;;3.62;47.16
73085;BME280;62974;49.460;10.892;2023-04-04T10:52:47;98645.66;;;3.60;48.70
73085;BME280;62974;49.460;10.892;2023-04-04T10:55:15;98647.97;;;4.22;48.95
73085;BME280;62974;49.460;10.892;2023-04-04T10:57:46;98639.56;;;4.55;49.53
73085;BME280;62974;49.460;10.892;2023-04-04T11:00:20;98650.75;;;4.68;48.49
73085;BME280;62974;49.460;10.892;2023-04-04T11:02:53;98642.25;;;4.26;48.68
73085;BME280;62974;49.460;10.892;2023-04-04T11:05:23;98639.81;;;5.18;47.86
73085;BME280;62974;49.460;10.892;2023-04-04T11:07:55;98640.41;;;4.46;47.38
73085;BME280;62974;49.460;10.892;2023-04-04T11:10:30;98650.78;;;4.01;49.96
73085;BME280;62974;49.460;10.892;2023-04-04T11:13:01;98645.69;;;3.79;48.81
73085;BME280;62974;49.460;10.892;2023-04-04T11:15:52;98640.66;;;3.76;49.22
73085;BME280;62974;49.460;10.892;2023-04-04T11:18:45;98642.69;;;3.44;48.96
73085;BME280;62974;49.460;10.892;2023-04-04T11:21:18;98639.91;;;3.55;48.92
73085;BME280;62974;49.460;10.892;2023-04-04T11:24:15;98628.09;;;3.78;48.63
73085;BME280;62974;49.460;10.892;2023-04-04T11:26:45;98632.97;;;3.73;49.34
73085;BME280;62974;49.460;10.892;2023-04-04T11:29:20;98642.25;;;3.39;48.43
73085;BME280;62974;49.460;10.892;2023-04-04T11:33:23;98627.66;;;3.83;48.00
73085;BME280;62974;49.460;10.892;2023-04-04T11:35:10;98636.00;;;4.93;48.86
73085;BME280;62974;49.460;10.892;2023-04-04T11:37:42;98623.91;;;4.43;47.14
73085;BME280;62974;49.460;10.892;2023-04-04T11:40:11;98628.25;;;4.44;46.59
73085;BME280;62974;49.460;10.892;2023-04-04T11:42:39;98633.28;;;4.56;47.63
73085;BME280;62974;49.460;10.892;2023-04-04T11:45:08;98628.94;;;4.55;47.97
73085;BME280;62974;49.460;10.892;2023-04-04T11:47:38;98623.91;;;4.43;49.16
73085;BME280;62974;49.460;10.892;2023-04-04T11:50:08;98625.66;;;3.56;47.13
73085;BME280;62974;49.460;10.892;2023-04-04T11:52:36;98625.34;;;3.30;49.15
73085;BME280;62974;49.460;10.892;2023-04-04T11:55:13;98621.88;;;3.49;48.66
73085;BME280;62974;49.460;10.892;2023-04-04T11:57:41;98615.78;;;3.87;49.18
73085;BME280;62974;49.460;10.892;2023-04-04T12:00:10;98627.28;;;4.16;50.33
73085;BME280;62974;49.460;10.892;2023-04-04T12:02:42;98621.69;;;4.19;49.13
73085;BME280;62974;49.460;10.892;2023-04-04T12:05:09;98618.03;;;3.82;49.03
73085;BME280;62974;49.460;10.892;2023-04-04T12:07:41;98622.31;;;3.63;49.96
73085;BME280;62974;49.460;10.892;2023-04-04T12:10:11;98620.59;;;3.43;48.76
73085;BME280;62974;49.460;10.892;2023-04-04T12:12:39;98619.72;;;3.73;48.31
73085;BME280;62974;49.460;10.892;2023-04-04T12:15:08;98620.69;;;4.49;48.20
73085;BME280;62974;49.460;10.892;2023-04-04T12:17:45;98606.44;;;4.87;47.21
73085;BME280;62974;49.460;10.892;2023-04-04T12:20:14;98602.00;;;5.42;47.49
73085;BME280;62974;49.460;10.892;2023-04-04T12:22:42;98607.50;;;5.13;45.11
73085;BME280;62974;49.460;10.892;2023-04-04T12:25:10;98610.50;;;4.15;45.80
73085;BME280;62974;49.460;10.892;2023-04-04T12:27:38;98612.72;;;4.10;47.42
73085;BME280;62974;49.460;10.892;2023-04-04T12:30:07;98614.28;;;4.03;48.74
73085;BME280;62974;49.460;10.892;2023-04-04T12:32:46;98616.94;;;4.13;49.90
73085;BME280;62974;49.460;10.892;2023-04-04T12:35:16;98617.34;;;4.28;49.44
73085;BME280;62974;49.460;10.892;2023-04-04T12:37:56;98617.53;;;4.82;49.66
73085;BME280;62974;49.460;10.892;2023-04-04T12:40:31;98604.66;;;5.24;47.25
73085;BME280;62974;49.460;10.892;2023-04-04T12:43:02;98603.22;;;4.93;47.92
73085;BME280;62974;49.460;10.892;2023-04-04T12:45:29;98595.06;;;4.48;47.48
73085;BME280;62974;49.460;10.892;2023-04-04T12:47:58;98594.63;;;5.36;48.38
73085;BME280;62974;49.460;10.892;2023-04-04T12:50:26;98582.19;;;4.43;47.52
73085;BME280;62974;49.460;10.892;2023-04-04T12:52:58;98590.72;;;4.56;49.52
73085;BME280;62974;49.460;10.892;2023-04-04T12:55:47;98580.44;;;5.17;48.15
73085;BME280;62974;49.460;10.892;2023-04-04T12:58:16;98576.78;;;5.18;48.71
73085;BME280;62974;49.460;10.892;2023-04-04T13:00:44;98597.13;;;4.63;49.12
73085;BME280;62974;49.460;10.892;2023-04-04T13:03:18;98590.13;;;4.62;49.27
73085;BME280;62974;49.460;10.892;2023-04-04T13:05:57;98578.84;;;4.97;48.16
73085;BME280;62974;49.460;10.892;2023-04-04T13:08:25;98573.69;;;4.86;46.73
73085;BME280;62974;49.460;10.892;2023-04-04T13:10:59;98576.78;;;3.87;47.73
73085;BME280;62974;49.460;10.892;2023-04-04T13:13:30;98577.50;;;3.89;48.70
73085;BME280;62974;49.460;10.892;2023-04-04T13:15:58;98576.63;;;4.37;49.04
73085;BME280;62974;49.460;10.892;2023-04-04T13:18:32;98559.19;;;4.71;47.77
73085;BME280;62974;49.460;10.892;2023-04-04T13:21:06;98553.72;;;4.72;47.37
73085;BME280;62974;49.460;10.892;2023-04-04T13:23:39;98556.28;;;5.01;47.57
73085;BME280;62974;49.460;10.892;2023-04-04T13:26:09;98550.75;;;4.76;47.32
73085;BME280;62974;49.460;10.892;2023-04-04T13:28:37;98552.75;;;4.64;48.32
73085;BME280;62974;49.460;10.892;2023-04-04T13:31:07;98561.38;;;4.29;48.43
73085;BME280;62974;49.460;10.892;2023-04-04T13:33:38;98559.88;;;3.98;48.59
73085;BME280;62974;49.460;10.892;2023-04-04T13:36:05;98561.25;;;3.83;48.63
73085;BME280;62974;49.460;10.892;2023-04-04T13:38:33;98562.94;;;4.03;49.24
73085;BME280;62974;49.460;10.892;2023-04-04T13:41:01;98560.44;;;3.82;49.23
73085;BME280;62974;49.460;10.892;2023-04-04T13:43:28;98560.97;;;4.34;48.77
73085;BME280;62974;49.460;10.892;2023-04-04T13:45:56;98548.13;;;4.66;48.20
73085;BME280;62974;49.460;10.892;2023-04-04T13:48:25;98540.13;;;5.03;49.42
73085;BME280;62974;49.460;10.892;2023-04-04T13:50:54;98529.47;;;5.12;46.90
73085;BME280;62974;49.460;10.892;2023-04-04T13:53:24;98526.53;;;5.06;45.96
73085;BME280;62974;49.460;10.892;2023-04-04T13:55:58;98526.91;;;5.20;46.14
73085;BME280;62974;49.460;10.892;2023-04-04T13:58:43;98535.19;;;5.80;47.05
73085;BME280;62974;49.460;10.892;2023-04-04T14:01:11;98532.44;;;4.72;45.12
73085;BME280;62974;49.460;10.892;2023-04-04T14:03:39;98543.09;;;4.63;47.56
73085;BME280;62974;49.460;10.892;2023-04-04T14:06:09;98542.25;;;4.72;48.40
73085;BME280;62974;49.460;10.892;2023-04-04T14:08:37;98533.53;;;5.34;49.24
73085;BME280;62974;49.460;10.892;2023-04-04T14:11:07;98525.56;;;5.07;45.86
73085;BME280;62974;49.460;10.892;2023-04-04T14:13:35;98526.69;;;5.04;48.93
73085;BME280;62974;49.460;10.892;2023-04-04T14:16:03;98524.41;;;4.82;46.28
73085;BME280;62974;49.460;10.892;2023-04-04T14:18:30;98526.16;;;5.01;46.15
73085;BME280;62974;49.460;10.892;2023-04-04T14:20:59;98525.69;;;5.33;45.33
73085;BME280;62974;49.460;10.892;2023-04-04T14:23:28;98523.03;;;5.50;44.92
73085;BME280;62974;49.460;10.892;2023-04-04T14:26:00;98527.44;;;4.97;49.01
73085;BME280;62974;49.460;10.892;2023-04-04T14:28:27;98529.06;;;4.34;45.78
73085;BME280;62974;49.460;10.892;2023-04-04T14:30:55;98533.13;;;4.28;46.83
73085;BME280;62974;49.460;10.892;2023-04-04T14:33:22;98524.75;;;4.13;47.29
73085;BME280;62974;49.460;10.892;2023-04-04T14:35:50;98529.56;;;4.56;48.80
73085;BME280;62974;49.460;10.892;2023-04-04T14:38:17;98516.41;;;4.82;46.83
73085;BME280;62974;49.460;10.892;2023-04-04T14:40:46;98511.84;;;5.02;47.04
73085;BME280;62974;49.460;10.892;2023-04-04T14:43:14;98509.69;;;5.15;46.52
73085;BME280;62974;49.460;10.892;2023-04-04T14:45:42;98513.75;;;4.82;46.68
73085;BME280;62974;49.460;10.892;2023-04-04T14:48:11;98511.25;;;4.81;46.21
73085;BME280;62974;49.460;10.892;2023-04-04T14:50:39;98518.19;;;4.64;47.00
73085;BME280;62974;49.460;10.892;2023-04-04T14:53:18;98512.34;;;4.88;46.40
73085;BME280;62974;49.460;10.892;2023-04-04T14:55:49;98520.13;;;4.71;47.93
73085;BME280;62974;49.460;10.892;2023-04-04T14:58:18;98520.31;;;4.51;47.64
73085;BME280;62974;49.460;10.892;2023-04-04T15:00:54;98514.50;;;4.38;46.39
73085;BME280;62974;49.460;10.892;2023-04-04T15:03:24;98509.31;;;4.46;45.83
73085;BME280;62974;49.460;10.892;2023-04-04T15:05:52;98507.53;;;5.01;46.87
73085;BME280;62974;49.460;10.892;2023-04-04T15:08:20;98501.88;;;5.13;46.08